Airfield :
LOGIN :

Register | Disclaimer

   EN    FR    IT 

 










Legend :    VFR   Marginal VFR   IFR   Intensive IFR   Very Intensive IFR
Visi :
Ceiling :
>= 8 km
>= 3000ft
5 to 8 km
1000 to 3000 ft
1500m to 5 km
500 to 1000 ft
800 to 1500m
200 to 500 ft
< 800m
< 200 ft
Symbols :   Thunderstorms  Fog  Heavy snow  Heavy precipitations  Wind > 20 kt
SIGMETs :     Misc.  Thunderstorms  Icing  Turbulence  Mountain Waves  Volcanic Ashes







- Airport Elevation : 220 ft
- IATA code : CWL
- Download approach charts


EGFF - Cardiff Rhoose

CURRENT METAR :
  • 260850Z AUTO 26014KT 9999 BKN015 BKN024 10/07 Q1017

EXPIRED METARs :
  • 260820Z AUTO 27015KT 9999 SCT016 BKN021 10/07 Q1017
  • 260750Z 27014KT 9999 SCT016 SCT025 09/07 Q1017
  • 260720Z 27013KT 9999 FEW017TCU 09/07 Q1017
  • 260650Z 28011KT 9999 6000E -SHRA SCT014CB BKN022 BKN030 08/06 Q1016 RESHRA RESHGS
  • 260620Z AUTO 27012KT 9999 SCT017 BKN024 BKN042 08/07 Q1016

TAF TAF EGFF
Valid from the 26 at 06:00 until the 27 at 06:00 UTC


260457Z 2606/2706 27015KT 9999 FEW025
TEMPO 2606/2608 BKN014
PROB30
TEMPO 2606/2616 27017G27KT 7000 SHRA
BECMG 2618/2621 VRB05KT
PROB30
TEMPO 2622/2624 7000 -RA
BECMG 2700/2703 10012KT
TEMPO 2700/2706 7000 -RA BKN012
PROB40
TEMPO 2702/2706 4000 RA BKN009
ATIS : +44 1446 729 319
No reported NOTAMs for that airfield.



MET'MAP, your aeronautical weather chart ! - Copyright ORBIFLY December 2007 - Disclaimer

ORBIFLY MET'MAP TEAM :

Programming & Development : Alexandra Zaïnal
Concept & Development : Baudouin d'Aumeries
Co-Development & Prog : Marc-Olivier Méhu
Technical & hardware support : Manuel Goepfert

Contact : metmap@orbifly.com




SOURCES & CREDITS :

   NOAA